Terminal Aerodrome Forecast
Issued by NWS

Home | Current Version | Previous Version | Graphics & Text | Print | Product List | Glossary On
Versions: 1 2 3 4 5 6 7 8 9 10 11 12 13 14
000
FTUS42 KMHX 241132
TAFPGV
TAF
KPGV 241132Z 2412/2512 23013G20KT P6SM SCT020 BKN040
      TEMPO 2412/2414 BKN020
     FM242000 23010KT 6SM -SHRA VCTS BKN040CB
     FM250000 22005KT 4SM SHRA VCTS SCT025CB OVC040
     FM250600 22005KT P6SM SHRA VCTS SCT007CB OVC030
     FM251000 30005KT P6SM VCSH SCT007 BKN030
      AMD LTD TO CLD VIS AND WIND=

USA.gov is the U.S. government's official web portal to all federal, state and local government web resources and services.